METAR Data
IDs: Format: Raw Decoded Include TAF

Data at: 1348 UTC 07 Jul 2020

KHXD 071250Z 00000KT 5SM TSRA BKN012 OVC020 25/24 A3002 RMK TS AIRPORT LTG E SE
KHXD 071150Z 00000KT 7SM BKN015 OVC080 26/25 A3000 RMK CU ALQDS
KHXD 071050Z 36004KT 6SM BR BKN015 OVC050 25/25 A3001 RMK CU ALQDS
KHXD 070935Z AUTO VRB03KT 9SM BKN027 OVC036 25/24 A3000 RMK AO2
KHXD 070915Z AUTO 00000KT 8SM OVC029 25/25 A3000 RMK AO2 LTG DSNT NE AND E
KHXD 070855Z AUTO 00000KT 8SM SCT031 BKN037 BKN048 25/24 A3000 RMK AO2
KHXD 070835Z AUTO 00000KT 8SM CLR 25/24 A3000 RMK AO2
KHXD 070815Z AUTO VRB04KT 8SM SCT034 SCT050 25/24 A3000 RMK AO2
KHXD 070755Z AUTO 00000KT 6SM BR BKN033 BKN039 OVC055 25/24 A3000 RMK AO2
KHXD 070735Z AUTO 00000KT 6SM BR FEW015 BKN031 OVC085 25/24 A3000 RMK AO2
KHXD 070715Z AUTO VRB03G12KT 7SM -DZ SCT014 BKN030 OVC070 25/24 A3001 RMK AO2
KHXD 070655Z AUTO VRB05G13KT 2SM -RA SCT005 BKN034 OVC070 24/23 A3001 RMK AO2
KHXD 070635Z AUTO 21007G18KT 1 1/4SM +RA BKN005 BKN017 OVC036 24/22 A3002 RMK AO2 VIS 3/4V4
KHXD 070615Z AUTO 00000KT 9SM SCT016 BKN055 OVC075 24/23 A3002 RMK AO2
KHXD 070555Z AUTO VRB04G14KT 2SM RA SCT010 BKN029 OVC070 24/23 A3003 RMK AO2
KHXD 070535Z AUTO 28007KT 7SM -DZ SCT016 BKN032 OVC110 26/25 A3003 RMK AO2
KHXD 070515Z AUTO 21006KT 7SM -DZ SCT018 BKN031 OVC120 26/25 A3004 RMK AO2
KHXD 070455Z AUTO VRB05KT 8SM -DZ SCT019 SCT027 BKN039 26/25 A3003 RMK AO2
KHXD 070435Z AUTO 20004KT 10SM SCT017 SCT026 SCT033 26/25 A3003 RMK AO2
KHXD 070415Z AUTO 19005KT 10SM SCT017 BKN033 26/24 A3003 RMK AO2
KHXD 070355Z AUTO 19006KT 10SM BKN018 26/24 A3003 RMK AO2
KHXD 070335Z AUTO VRB05KT 10SM BKN018 26/25 A3003 RMK AO2
KHXD 070315Z AUTO 19005KT 9SM FEW016 26/25 A3002 RMK AO2
KHXD 070255Z AUTO 19004KT 9SM CLR 26/25 A3003 RMK AO2
KHXD 070235Z AUTO 19003KT 10SM CLR 26/25 A3003 RMK AO2
KHXD 070215Z AUTO 18005KT 10SM FEW036 FEW060 SCT120 26/25 A3004 RMK AO2
KHXD 070155Z AUTO 19003KT 8SM -DZ FEW035 SCT055 BKN080 26/25 A3004 RMK AO2
KHXD 070135Z AUTO 19004KT 8SM -DZ FEW034 SCT047 BKN075 25/25 A3005 RMK AO2
KHXD 070115Z AUTO 18005KT 6SM -RA FEW036 SCT044 BKN075 25/24 A3005 RMK AO2
KHXD 070055Z AUTO 19003KT 7SM -RA BKN044 BKN055 OVC070 25/24 A3005 RMK AO2
KHXD 070050Z 00000KT 8SM VCTS BKN043 25/24 A3003 RMK TS IN VICINITY LTG DSTN NE
KHXD 062350Z 20005KT 8SM SCT024 BKN032 25/24 A3003 RMK RE40
KHXD 062304Z 23012KT 2SM RA OVC011 26/24 A3004 RMK LTG DSNT SE AND NW RB02
KHXD 062250Z 18008KT 10SM BKN017 OVC033 28/25 A3003
KHXD 062150Z 18008KT 10SM BKN017 OVC028 28/25 A3002
KHXD 062050Z 18005KT 9SM BKN018 28/24 A3003
KHXD 061950Z 18008KT 9SM BKN017 28/25 A3004
KHXD 061850Z 16005KT 8SM SCT017 30/25 A3004
KHXD 061750Z 16005KT 8SM BKN015 30/25 A3005 RMK TS IN VCNTY LTG DSNT W
KHXD 061650Z 16005KT 8SM SCT015 BKN020 29/25 A3006
KHXD 061550Z 10005KT 8SM SCT017 BKN022 28/25 A3008
KHXD 061450Z 10005KT 8SM SCT018 BKN028 28/25 A3007
KHXD 061350Z 00000KT 8SM HZ FEW019 BKN028 27/24 A3006
KHXD 061250Z 00000KT 10SM FEW015 BKN028 OVC037 26/24 A3005
KHXD 061150Z 00000KT 10SM SCT024 OVC044 25/24 A3003
KHXD 061050Z 05004KT 10SM SCT024 BKN044 24/24 A3001
KHXD 060935Z AUTO 00000KT 6SM -DZ FEW016 SCT060 BKN075 24/23 A2999 RMK AO2
KHXD 060915Z AUTO 21007KT 4SM -DZ SCT015 BKN030 OVC080 26/24 A2998 RMK AO2
KHXD 060855Z AUTO 20004KT 9SM FEW019 SCT024 BKN031 26/23 A2998 RMK AO2
KHXD 060835Z AUTO 00000KT 9SM SCT019 SCT026 BKN033 26/23 A2998 RMK AO2
KHXD 060815Z AUTO VRB03KT 10SM BKN025 BKN032 26/23 A2998 RMK AO2
KHXD 060755Z AUTO 20004KT 10SM SCT022 BKN027 BKN031 26/23 A2998 RMK AO2
KHXD 060735Z AUTO 00000KT 9SM BKN021 BKN033 BKN039 25/23 A2998 RMK AO2
KHXD 060715Z AUTO 00000KT 10SM SCT020 SCT026 BKN043 26/23 A2998 RMK AO2
KHXD 060655Z AUTO 00000KT 10SM SCT019 SCT026 SCT038 26/23 A2998 RMK AO2
KHXD 060635Z AUTO 00000KT 10SM FEW018 FEW025 SCT039 26/23 A2999 RMK AO2
KHXD 060615Z AUTO VRB07KT 9SM FEW017 SCT025 SCT033 26/23 A2999 RMK AO2
KHXD 060555Z AUTO 21006KT 10SM SCT017 SCT023 BKN029 26/23 A3000 RMK AO2
KHXD 060535Z AUTO 00000KT 10SM FEW015 SCT023 BKN030 25/23 A3000 RMK AO2
KHXD 060515Z AUTO VRB04KT 10SM FEW015 FEW026 FEW032 25/23 A3000 RMK AO2
KHXD 060455Z AUTO 20003KT 10SM SCT016 SCT024 25/23 A3000 RMK AO2
KHXD 060435Z AUTO 00000KT 9SM BKN017 BKN022 BKN027 25/23 A3001 RMK AO2
KHXD 060415Z AUTO 00000KT 9SM SCT017 SCT025 SCT030 25/23 A3001 RMK AO2
KHXD 060355Z AUTO 00000KT 9SM CLR 25/23 A3000 RMK AO2
KHXD 060335Z AUTO 00000KT 10SM CLR 25/23 A3000 RMK AO2
KHXD 060315Z AUTO 00000KT 10SM CLR 25/23 A3000 RMK AO2 LTG DSNT E
KHXD 060255Z AUTO 00000KT 9SM CLR 25/24 A3000 RMK AO2
KHXD 060235Z AUTO 00000KT 9SM FEW022 FEW034 FEW043 26/24 A2999 RMK AO2
KHXD 060215Z AUTO 27005KT 10SM SCT020 SCT028 BKN034 26/24 A2998 RMK AO2 LTG DSNT E
KHXD 060155Z AUTO 23008KT 150V260 9SM BKN020 OVC036 27/24 A2998 RMK AO2 LTG DSNT E AND W